sensor_id;sensor_type;location;lat;lon;timestamp;P1;durP1;ratioP1;P2;durP2;ratioP2
1545;SDS011;766;51.502;9.752;2023-03-03T00:01:52;32.57;;;15.77;;
1545;SDS011;766;51.502;9.752;2023-03-03T00:04:21;31.37;;;14.93;;
1545;SDS011;766;51.502;9.752;2023-03-03T00:06:49;35.20;;;17.80;;
1545;SDS011;766;51.502;9.752;2023-03-03T00:09:18;40.17;;;16.02;;
1545;SDS011;766;51.502;9.752;2023-03-03T00:11:47;38.93;;;17.33;;
1545;SDS011;766;51.502;9.752;2023-03-03T00:14:25;36.42;;;16.48;;
1545;SDS011;766;51.502;9.752;2023-03-03T00:16:58;34.80;;;16.08;;
1545;SDS011;766;51.502;9.752;2023-03-03T00:19:35;41.43;;;16.77;;
1545;SDS011;766;51.502;9.752;2023-03-03T00:22:11;39.45;;;17.15;;
1545;SDS011;766;51.502;9.752;2023-03-03T00:24:47;70.50;;;17.00;;
1545;SDS011;766;51.502;9.752;2023-03-03T00:27:21;46.43;;;16.03;;
1545;SDS011;766;51.502;9.752;2023-03-03T00:29:56;34.97;;;14.43;;
1545;SDS011;766;51.502;9.752;2023-03-03T00:32:29;32.83;;;14.40;;
1545;SDS011;766;51.502;9.752;2023-03-03T00:35:18;54.93;;;16.67;;
1545;SDS011;766;51.502;9.752;2023-03-03T00:37:54;121.60;;;19.77;;
1545;SDS011;766;51.502;9.752;2023-03-03T00:40:34;35.77;;;16.17;;
1545;SDS011;766;51.502;9.752;2023-03-03T00:43:16;38.73;;;16.33;;
1545;SDS011;766;51.502;9.752;2023-03-03T00:46:08;41.47;;;16.53;;
1545;SDS011;766;51.502;9.752;2023-03-03T00:48:56;40.93;;;15.73;;
1545;SDS011;766;51.502;9.752;2023-03-03T00:51:26;33.43;;;14.97;;
1545;SDS011;766;51.502;9.752;2023-03-03T00:53:59;37.30;;;16.00;;
1545;SDS011;766;51.502;9.752;2023-03-03T00:56:42;34.93;;;16.77;;
1545;SDS011;766;51.502;9.752;2023-03-03T00:59:18;36.45;;;16.25;;
1545;SDS011;766;51.502;9.752;2023-03-03T01:01:50;40.50;;;14.68;;
1545;SDS011;766;51.502;9.752;2023-03-03T01:04:37;49.00;;;16.77;;
1545;SDS011;766;51.502;9.752;2023-03-03T01:07:12;93.93;;;16.70;;
1545;SDS011;766;51.502;9.752;2023-03-03T01:09:53;29.45;;;14.18;;
1545;SDS011;766;51.502;9.752;2023-03-03T01:12:24;28.75;;;12.70;;
1545;SDS011;766;51.502;9.752;2023-03-03T01:15:18;29.42;;;13.45;;
1545;SDS011;766;51.502;9.752;2023-03-03T01:17:49;27.13;;;13.17;;
1545;SDS011;766;51.502;9.752;2023-03-03T01:20:37;29.20;;;12.47;;
1545;SDS011;766;51.502;9.752;2023-03-03T01:23:07;71.67;;;14.57;;
1545;SDS011;766;51.502;9.752;2023-03-03T01:25:47;60.17;;;16.57;;
1545;SDS011;766;51.502;9.752;2023-03-03T01:28:21;110.90;;;17.33;;
1545;SDS011;766;51.502;9.752;2023-03-03T01:31:00;37.37;;;14.33;;
1545;SDS011;766;51.502;9.752;2023-03-03T01:33:47;26.83;;;11.57;;
1545;SDS011;766;51.502;9.752;2023-03-03T01:36:28;28.93;;;13.30;;
1545;SDS011;766;51.502;9.752;2023-03-03T01:39:01;29.13;;;13.80;;
1545;SDS011;766;51.502;9.752;2023-03-03T01:41:30;71.57;;;14.17;;
1545;SDS011;766;51.502;9.752;2023-03-03T01:44:02;39.23;;;14.00;;
1545;SDS011;766;51.502;9.752;2023-03-03T01:46:32;27.13;;;12.40;;
1545;SDS011;766;51.502;9.752;2023-03-03T01:49:17;37.27;;;13.03;;
1545;SDS011;766;51.502;9.752;2023-03-03T01:51:55;33.50;;;12.23;;
1545;SDS011;766;51.502;9.752;2023-03-03T01:54:51;31.50;;;13.33;;
1545;SDS011;766;51.502;9.752;2023-03-03T01:57:40;29.52;;;13.82;;
1545;SDS011;766;51.502;9.752;2023-03-03T02:00:14;26.67;;;13.05;;
1545;SDS011;766;51.502;9.752;2023-03-03T02:02:47;26.55;;;13.05;;
1545;SDS011;766;51.502;9.752;2023-03-03T02:05:22;22.60;;;11.10;;
1545;SDS011;766;51.502;9.752;2023-03-03T02:08:14;24.57;;;11.70;;
1545;SDS011;766;51.502;9.752;2023-03-03T02:10:45;21.63;;;10.67;;
1545;SDS011;766;51.502;9.752;2023-03-03T02:13:20;21.52;;;11.15;;
1545;SDS011;766;51.502;9.752;2023-03-03T02:15:49;45.92;;;11.93;;
1545;SDS011;766;51.502;9.752;2023-03-03T02:18:28;98.18;;;14.65;;
1545;SDS011;766;51.502;9.752;2023-03-03T02:21:11;158.33;;;17.57;;
1545;SDS011;766;51.502;9.752;2023-03-03T02:23:49;145.53;;;16.27;;
1545;SDS011;766;51.502;9.752;2023-03-03T02:26:34;158.50;;;17.47;;
1545;SDS011;766;51.502;9.752;2023-03-03T02:29:15;107.47;;;16.20;;
1545;SDS011;766;51.502;9.752;2023-03-03T02:31:54;28.70;;;12.70;;
1545;SDS011;766;51.502;9.752;2023-03-03T02:34:52;31.27;;;12.23;;
1545;SDS011;766;51.502;9.752;2023-03-03T02:37:26;32.57;;;12.47;;
1545;SDS011;766;51.502;9.752;2023-03-03T02:40:20;27.70;;;12.70;;
1545;SDS011;766;51.502;9.752;2023-03-03T02:43:00;26.23;;;13.03;;
1545;SDS011;766;51.502;9.752;2023-03-03T02:45:54;21.47;;;11.43;;
1545;SDS011;766;51.502;9.752;2023-03-03T02:48:23;70.60;;;14.37;;
1545;SDS011;766;51.502;9.752;2023-03-03T02:50:58;115.23;;;16.27;;
1545;SDS011;766;51.502;9.752;2023-03-03T02:53:37;25.10;;;11.87;;
1545;SDS011;766;51.502;9.752;2023-03-03T02:56:06;26.13;;;12.23;;
1545;SDS011;766;51.502;9.752;2023-03-03T02:58:40;24.30;;;11.50;;
1545;SDS011;766;51.502;9.752;2023-03-03T03:01:22;28.90;;;12.03;;
1545;SDS011;766;51.502;9.752;2023-03-03T03:04:15;26.60;;;13.47;;
1545;SDS011;766;51.502;9.752;2023-03-03T03:06:56;24.13;;;11.87;;
1545;SDS011;766;51.502;9.752;2023-03-03T03:09:35;25.87;;;12.07;;
1545;SDS011;766;51.502;9.752;2023-03-03T03:12:09;26.30;;;12.60;;
1545;SDS011;766;51.502;9.752;2023-03-03T03:14:40;26.53;;;12.97;;
1545;SDS011;766;51.502;9.752;2023-03-03T03:17:16;26.27;;;11.80;;
1545;SDS011;766;51.502;9.752;2023-03-03T03:19:59;26.00;;;11.00;;
1545;SDS011;766;51.502;9.752;2023-03-03T03:22:35;25.00;;;12.17;;
1545;SDS011;766;51.502;9.752;2023-03-03T03:25:26;22.50;;;11.27;;
1545;SDS011;766;51.502;9.752;2023-03-03T03:28:10;20.10;;;10.60;;
1545;SDS011;766;51.502;9.752;2023-03-03T03:30:45;21.90;;;11.33;;
1545;SDS011;766;51.502;9.752;2023-03-03T03:33:14;22.70;;;10.63;;
1545;SDS011;766;51.502;9.752;2023-03-03T03:35:43;24.73;;;10.53;;
1545;SDS011;766;51.502;9.752;2023-03-03T03:38:13;27.45;;;11.57;;
1545;SDS011;766;51.502;9.752;2023-03-03T03:40:41;24.73;;;11.35;;
1545;SDS011;766;51.502;9.752;2023-03-03T03:46:03;20.17;;;10.27;;
1545;SDS011;766;51.502;9.752;2023-03-03T03:48:38;17.90;;;9.85;;
1545;SDS011;766;51.502;9.752;2023-03-03T03:51:21;20.90;;;10.90;;
1545;SDS011;766;51.502;9.752;2023-03-03T03:53:51;19.95;;;10.35;;
1545;SDS011;766;51.502;9.752;2023-03-03T03:56:39;17.88;;;9.45;;
1545;SDS011;766;51.502;9.752;2023-03-03T03:59:14;17.63;;;10.02;;
1545;SDS011;766;51.502;9.752;2023-03-03T04:01:46;21.30;;;10.73;;
1545;SDS011;766;51.502;9.752;2023-03-03T04:04:15;17.63;;;9.50;;
1545;SDS011;766;51.502;9.752;2023-03-03T04:06:44;20.77;;;9.93;;
1545;SDS011;766;51.502;9.752;2023-03-03T04:09:12;18.15;;;9.35;;
1545;SDS011;766;51.502;9.752;2023-03-03T04:11:40;20.33;;;9.93;;
1545;SDS011;766;51.502;9.752;2023-03-03T04:14:09;20.07;;;10.33;;
1545;SDS011;766;51.502;9.752;2023-03-03T04:16:37;16.70;;;9.50;;
1545;SDS011;766;51.502;9.752;2023-03-03T04:19:11;21.10;;;10.25;;
1545;SDS011;766;51.502;9.752;2023-03-03T04:21:40;18.42;;;9.75;;
1545;SDS011;766;51.502;9.752;2023-03-03T04:24:15;23.55;;;9.80;;
1545;SDS011;766;51.502;9.752;2023-03-03T04:27:07;21.97;;;10.27;;
1545;SDS011;766;51.502;9.752;2023-03-03T04:29:42;19.33;;;9.82;;
1545;SDS011;766;51.502;9.752;2023-03-03T04:32:10;18.00;;;9.85;;
1545;SDS011;766;51.502;9.752;2023-03-03T04:34:52;19.27;;;9.70;;
1545;SDS011;766;51.502;9.752;2023-03-03T04:37:34;16.77;;;8.98;;
1545;SDS011;766;51.502;9.752;2023-03-03T04:40:05;29.85;;;10.10;;
1545;SDS011;766;51.502;9.752;2023-03-03T04:42:44;21.88;;;10.15;;
1545;SDS011;766;51.502;9.752;2023-03-03T04:45:18;13.95;;;8.43;;
1545;SDS011;766;51.502;9.752;2023-03-03T04:47:50;21.08;;;9.77;;
1545;SDS011;766;51.502;9.752;2023-03-03T04:50:29;19.00;;;9.98;;
1545;SDS011;766;51.502;9.752;2023-03-03T04:53:21;18.17;;;9.03;;
1545;SDS011;766;51.502;9.752;2023-03-03T04:56:05;23.13;;;8.55;;
1545;SDS011;766;51.502;9.752;2023-03-03T04:58:39;17.87;;;9.10;;
1545;SDS011;766;51.502;9.752;2023-03-03T05:01:14;54.50;;;10.70;;
1545;SDS011;766;51.502;9.752;2023-03-03T05:06:51;17.38;;;8.75;;
1545;SDS011;766;51.502;9.752;2023-03-03T05:09:46;35.47;;;9.03;;
1545;SDS011;766;51.502;9.752;2023-03-03T05:12:15;18.47;;;9.10;;
1545;SDS011;766;51.502;9.752;2023-03-03T05:14:48;17.90;;;9.40;;
1545;SDS011;766;51.502;9.752;2023-03-03T05:17:19;20.23;;;9.77;;
1545;SDS011;766;51.502;9.752;2023-03-03T05:19:51;16.40;;;8.73;;
1545;SDS011;766;51.502;9.752;2023-03-03T05:22:39;47.97;;;11.53;;
1545;SDS011;766;51.502;9.752;2023-03-03T05:25:18;31.17;;;10.97;;
1545;SDS011;766;51.502;9.752;2023-03-03T05:27:53;21.50;;;9.53;;
1545;SDS011;766;51.502;9.752;2023-03-03T05:30:26;19.70;;;9.50;;
1545;SDS011;766;51.502;9.752;2023-03-03T05:32:58;20.83;;;9.73;;
1545;SDS011;766;51.502;9.752;2023-03-03T05:35:33;18.87;;;9.80;;
1545;SDS011;766;51.502;9.752;2023-03-03T05:38:08;16.20;;;8.47;;
1545;SDS011;766;51.502;9.752;2023-03-03T05:40:37;18.03;;;9.50;;
1545;SDS011;766;51.502;9.752;2023-03-03T05:43:08;22.77;;;8.70;;
1545;SDS011;766;51.502;9.752;2023-03-03T05:45:37;19.93;;;9.20;;
1545;SDS011;766;51.502;9.752;2023-03-03T05:48:13;28.23;;;10.43;;
1545;SDS011;766;51.502;9.752;2023-03-03T05:50:46;23.40;;;9.87;;
1545;SDS011;766;51.502;9.752;2023-03-03T05:53:21;19.88;;;9.35;;
1545;SDS011;766;51.502;9.752;2023-03-03T05:55:52;17.93;;;8.87;;
1545;SDS011;766;51.502;9.752;2023-03-03T05:58:22;21.30;;;9.13;;
1545;SDS011;766;51.502;9.752;2023-03-03T06:00:50;18.77;;;9.87;;
1545;SDS011;766;51.502;9.752;2023-03-03T06:03:18;19.13;;;9.77;;
1545;SDS011;766;51.502;9.752;2023-03-03T06:05:47;17.40;;;9.23;;
1545;SDS011;766;51.502;9.752;2023-03-03T06:08:16;20.38;;;9.93;;
1545;SDS011;766;51.502;9.752;2023-03-03T06:10:47;20.30;;;9.77;;
1545;SDS011;766;51.502;9.752;2023-03-03T06:13:23;22.97;;;11.43;;
1545;SDS011;766;51.502;9.752;2023-03-03T06:15:59;38.17;;;14.17;;
1545;SDS011;766;51.502;9.752;2023-03-03T06:18:35;26.07;;;12.40;;
1545;SDS011;766;51.502;9.752;2023-03-03T06:21:29;38.60;;;14.17;;
1545;SDS011;766;51.502;9.752;2023-03-03T06:24:01;22.75;;;11.27;;
1545;SDS011;766;51.502;9.752;2023-03-03T06:26:52;23.90;;;11.10;;
1545;SDS011;766;51.502;9.752;2023-03-03T06:29:27;21.33;;;10.97;;
1545;SDS011;766;51.502;9.752;2023-03-03T06:31:59;24.27;;;12.17;;
1545;SDS011;766;51.502;9.752;2023-03-03T06:34:41;27.80;;;12.10;;
1545;SDS011;766;51.502;9.752;2023-03-03T06:37:09;29.27;;;12.80;;
1545;SDS011;766;51.502;9.752;2023-03-03T06:39:41;86.27;;;15.93;;
1545;SDS011;766;51.502;9.752;2023-03-03T06:42:10;72.93;;;13.43;;
1545;SDS011;766;51.502;9.752;2023-03-03T06:44:38;24.27;;;11.33;;
1545;SDS011;766;51.502;9.752;2023-03-03T06:47:07;26.80;;;12.37;;
1545;SDS011;766;51.502;9.752;2023-03-03T06:49:35;35.30;;;12.50;;
1545;SDS011;766;51.502;9.752;2023-03-03T06:52:11;103.00;;;13.77;;
1545;SDS011;766;51.502;9.752;2023-03-03T06:54:41;119.73;;;18.53;;
1545;SDS011;766;51.502;9.752;2023-03-03T06:57:19;33.07;;;11.10;;
1545;SDS011;766;51.502;9.752;2023-03-03T07:00:18;59.97;;;11.03;;
1545;SDS011;766;51.502;9.752;2023-03-03T07:02:52;99.17;;;13.57;;
1545;SDS011;766;51.502;9.752;2023-03-03T07:05:41;69.53;;;11.93;;
1545;SDS011;766;51.502;9.752;2023-03-03T07:08:16;33.67;;;10.77;;
1545;SDS011;766;51.502;9.752;2023-03-03T07:10:48;58.43;;;10.60;;
1545;SDS011;766;51.502;9.752;2023-03-03T07:13:30;45.93;;;11.90;;
1545;SDS011;766;51.502;9.752;2023-03-03T07:16:12;55.87;;;10.67;;
1545;SDS011;766;51.502;9.752;2023-03-03T07:18:47;65.87;;;11.90;;
1545;SDS011;766;51.502;9.752;2023-03-03T07:21:22;23.23;;;8.33;;
1545;SDS011;766;51.502;9.752;2023-03-03T07:23:57;48.50;;;9.40;;
1545;SDS011;766;51.502;9.752;2023-03-03T07:26:28;20.13;;;8.67;;
1545;SDS011;766;51.502;9.752;2023-03-03T07:29:00;72.17;;;11.23;;
1545;SDS011;766;51.502;9.752;2023-03-03T07:31:41;19.53;;;8.77;;
1545;SDS011;766;51.502;9.752;2023-03-03T07:34:16;21.63;;;9.73;;
1545;SDS011;766;51.502;9.752;2023-03-03T07:36:48;45.70;;;14.13;;
1545;SDS011;766;51.502;9.752;2023-03-03T07:39:25;32.47;;;10.67;;
1545;SDS011;766;51.502;9.752;2023-03-03T07:41:59;56.10;;;10.93;;
1545;SDS011;766;51.502;9.752;2023-03-03T07:44:53;31.83;;;12.07;;
1545;SDS011;766;51.502;9.752;2023-03-03T07:47:23;38.57;;;10.30;;
1545;SDS011;766;51.502;9.752;2023-03-03T07:50:16;24.97;;;9.73;;
1545;SDS011;766;51.502;9.752;2023-03-03T07:52:50;25.90;;;10.43;;
1545;SDS011;766;51.502;9.752;2023-03-03T07:55:25;43.47;;;10.93;;
1545;SDS011;766;51.502;9.752;2023-03-03T07:58:00;25.63;;;10.03;;
1545;SDS011;766;51.502;9.752;2023-03-03T08:03:59;91.67;;;12.87;;
1545;SDS011;766;51.502;9.752;2023-03-03T08:06:41;46.83;;;11.93;;
1545;SDS011;766;51.502;9.752;2023-03-03T08:12:23;33.73;;;12.97;;
1545;SDS011;766;51.502;9.752;2023-03-03T08:15:11;28.63;;;12.47;;
1545;SDS011;766;51.502;9.752;2023-03-03T08:17:46;19.40;;;9.63;;
1545;SDS011;766;51.502;9.752;2023-03-03T08:23:13;26.20;;;10.00;;
1545;SDS011;766;51.502;9.752;2023-03-03T08:25:43;20.40;;;9.90;;
1545;SDS011;766;51.502;9.752;2023-03-03T08:28:12;22.23;;;10.00;;
1545;SDS011;766;51.502;9.752;2023-03-03T08:30:41;18.40;;;8.20;;
1545;SDS011;766;51.502;9.752;2023-03-03T08:33:10;19.90;;;8.15;;
1545;SDS011;766;51.502;9.752;2023-03-03T08:35:39;19.03;;;8.67;;
1545;SDS011;766;51.502;9.752;2023-03-03T08:38:09;26.07;;;10.57;;
1545;SDS011;766;51.502;9.752;2023-03-03T08:40:39;45.07;;;10.03;;
1545;SDS011;766;51.502;9.752;2023-03-03T08:43:07;46.40;;;13.33;;
1545;SDS011;766;51.502;9.752;2023-03-03T08:45:36;35.27;;;12.00;;
1545;SDS011;766;51.502;9.752;2023-03-03T08:48:05;24.60;;;9.43;;
1545;SDS011;766;51.502;9.752;2023-03-03T08:50:33;16.67;;;8.63;;
1545;SDS011;766;51.502;9.752;2023-03-03T08:53:02;16.83;;;7.70;;
1545;SDS011;766;51.502;9.752;2023-03-03T08:55:31;17.30;;;7.90;;
1545;SDS011;766;51.502;9.752;2023-03-03T08:58:00;22.30;;;9.13;;
1545;SDS011;766;51.502;9.752;2023-03-03T09:00:29;22.47;;;8.33;;
1545;SDS011;766;51.502;9.752;2023-03-03T09:02:57;12.07;;;6.30;;
1545;SDS011;766;51.502;9.752;2023-03-03T09:05:26;12.57;;;6.60;;
1545;SDS011;766;51.502;9.752;2023-03-03T09:07:54;12.97;;;6.47;;
1545;SDS011;766;51.502;9.752;2023-03-03T09:10:23;52.23;;;9.37;;
1545;SDS011;766;51.502;9.752;2023-03-03T09:12:56;14.10;;;7.07;;
1545;SDS011;766;51.502;9.752;2023-03-03T09:15:28;13.07;;;6.03;;
1545;SDS011;766;51.502;9.752;2023-03-03T09:17:58;11.82;;;5.72;;
1545;SDS011;766;51.502;9.752;2023-03-03T09:20:36;12.13;;;6.00;;
1545;SDS011;766;51.502;9.752;2023-03-03T09:23:27;11.00;;;6.10;;
1545;SDS011;766;51.502;9.752;2023-03-03T09:26:10;11.70;;;6.03;;
1545;SDS011;766;51.502;9.752;2023-03-03T09:28:54;11.23;;;5.25;;
1545;SDS011;766;51.502;9.752;2023-03-03T09:31:25;14.43;;;5.93;;
1545;SDS011;766;51.502;9.752;2023-03-03T09:33:57;9.98;;;5.55;;
1545;SDS011;766;51.502;9.752;2023-03-03T09:36:28;11.85;;;5.85;;
1545;SDS011;766;51.502;9.752;2023-03-03T09:39:09;13.38;;;6.07;;
1545;SDS011;766;51.502;9.752;2023-03-03T09:41:53;9.13;;;5.53;;
1545;SDS011;766;51.502;9.752;2023-03-03T09:44:51;10.70;;;5.18;;
1545;SDS011;766;51.502;9.752;2023-03-03T09:47:34;9.90;;;5.38;;
1545;SDS011;766;51.502;9.752;2023-03-03T09:50:15;21.45;;;9.65;;
1545;SDS011;766;51.502;9.752;2023-03-03T09:52:51;8.50;;;4.80;;
1545;SDS011;766;51.502;9.752;2023-03-03T09:55:35;11.55;;;5.53;;
1545;SDS011;766;51.502;9.752;2023-03-03T09:58:17;10.95;;;5.03;;
1545;SDS011;766;51.502;9.752;2023-03-03T10:00:58;16.17;;;5.40;;
1545;SDS011;766;51.502;9.752;2023-03-03T10:03:45;16.07;;;6.87;;
1545;SDS011;766;51.502;9.752;2023-03-03T10:06:26;15.97;;;6.13;;
1545;SDS011;766;51.502;9.752;2023-03-03T10:09:02;13.53;;;5.93;;
1545;SDS011;766;51.502;9.752;2023-03-03T10:11:52;17.57;;;5.70;;
1545;SDS011;766;51.502;9.752;2023-03-03T10:14:34;21.10;;;5.63;;
1545;SDS011;766;51.502;9.752;2023-03-03T10:17:23;14.00;;;5.80;;
1545;SDS011;766;51.502;9.752;2023-03-03T10:20:06;16.50;;;5.60;;
1545;SDS011;766;51.502;9.752;2023-03-03T10:22:46;12.60;;;5.83;;
1545;SDS011;766;51.502;9.752;2023-03-03T10:25:33;19.47;;;7.23;;
1545;SDS011;766;51.502;9.752;2023-03-03T10:28:19;12.20;;;5.43;;
1545;SDS011;766;51.502;9.752;2023-03-03T10:31:14;41.33;;;8.77;;
1545;SDS011;766;51.502;9.752;2023-03-03T10:33:56;31.83;;;8.60;;
1545;SDS011;766;51.502;9.752;2023-03-03T10:36:33;9.50;;;5.00;;
1545;SDS011;766;51.502;9.752;2023-03-03T10:39:20;11.40;;;5.93;;
1545;SDS011;766;51.502;9.752;2023-03-03T10:42:03;12.45;;;6.07;;
1545;SDS011;766;51.502;9.752;2023-03-03T10:44:46;9.57;;;4.63;;
1545;SDS011;766;51.502;9.752;2023-03-03T10:47:33;11.30;;;5.40;;
1545;SDS011;766;51.502;9.752;2023-03-03T10:50:24;11.20;;;5.50;;
1545;SDS011;766;51.502;9.752;2023-03-03T10:53:10;11.33;;;5.20;;
1545;SDS011;766;51.502;9.752;2023-03-03T10:55:47;9.93;;;5.13;;
1545;SDS011;766;51.502;9.752;2023-03-03T10:58:34;11.90;;;5.30;;
1545;SDS011;766;51.502;9.752;2023-03-03T11:01:27;11.05;;;5.53;;
1545;SDS011;766;51.502;9.752;2023-03-03T11:04:10;10.90;;;5.45;;
1545;SDS011;766;51.502;9.752;2023-03-03T11:06:59;10.45;;;5.13;;
1545;SDS011;766;51.502;9.752;2023-03-03T11:09:36;8.73;;;4.83;;
1545;SDS011;766;51.502;9.752;2023-03-03T11:12:28;10.02;;;5.43;;
1545;SDS011;766;51.502;9.752;2023-03-03T11:15:11;11.10;;;5.60;;
1545;SDS011;766;51.502;9.752;2023-03-03T11:17:56;10.93;;;5.55;;
1545;SDS011;766;51.502;9.752;2023-03-03T11:20:37;11.13;;;5.28;;
1545;SDS011;766;51.502;9.752;2023-03-03T11:23:20;10.25;;;5.88;;
1545;SDS011;766;51.502;9.752;2023-03-03T11:26:07;10.25;;;5.47;;
1545;SDS011;766;51.502;9.752;2023-03-03T11:28:45;11.68;;;5.13;;
1545;SDS011;766;51.502;9.752;2023-03-03T11:31:26;10.18;;;5.65;;
1545;SDS011;766;51.502;9.752;2023-03-03T11:34:02;12.10;;;6.10;;
1545;SDS011;766;51.502;9.752;2023-03-03T11:36:41;11.18;;;5.75;;
1545;SDS011;766;51.502;9.752;2023-03-03T11:39:15;12.40;;;6.22;;
1545;SDS011;766;51.502;9.752;2023-03-03T11:41:50;13.57;;;5.80;;
1545;SDS011;766;51.502;9.752;2023-03-03T11:44:28;10.95;;;5.38;;
1545;SDS011;766;51.502;9.752;2023-03-03T11:47:02;11.88;;;5.90;;
1545;SDS011;766;51.502;9.752;2023-03-03T11:49:36;10.05;;;5.05;;
1545;SDS011;766;51.502;9.752;2023-03-03T11:52:13;8.40;;;4.78;;
1545;SDS011;766;51.502;9.752;2023-03-03T11:54:55;12.10;;;6.07;;
1545;SDS011;766;51.502;9.752;2023-03-03T11:57:29;13.60;;;7.38;;
1545;SDS011;766;51.502;9.752;2023-03-03T12:00:04;16.55;;;7.30;;
1545;SDS011;766;51.502;9.752;2023-03-03T12:02:49;11.40;;;6.10;;
1545;SDS011;766;51.502;9.752;2023-03-03T12:05:45;9.40;;;5.10;;
1545;SDS011;766;51.502;9.752;2023-03-03T12:08:23;13.13;;;6.25;;
1545;SDS011;766;51.502;9.752;2023-03-03T12:11:01;11.68;;;5.55;;
1545;SDS011;766;51.502;9.752;2023-03-03T12:13:36;11.70;;;6.45;;
1545;SDS011;766;51.502;9.752;2023-03-03T12:16:16;10.98;;;5.03;;
1545;SDS011;766;51.502;9.752;2023-03-03T12:18:52;11.07;;;4.90;;
1545;SDS011;766;51.502;9.752;2023-03-03T12:21:33;8.73;;;4.72;;
1545;SDS011;766;51.502;9.752;2023-03-03T12:24:27;10.25;;;5.35;;
1545;SDS011;766;51.502;9.752;2023-03-03T12:27:06;11.80;;;5.70;;
1545;SDS011;766;51.502;9.752;2023-03-03T12:29:44;9.30;;;4.90;;
1545;SDS011;766;51.502;9.752;2023-03-03T12:32:22;9.68;;;5.43;;
1545;SDS011;766;51.502;9.752;2023-03-03T12:35:02;9.30;;;4.57;;
1545;SDS011;766;51.502;9.752;2023-03-03T12:37:44;9.15;;;4.40;;
1545;SDS011;766;51.502;9.752;2023-03-03T12:40:18;8.30;;;5.03;;
1545;SDS011;766;51.502;9.752;2023-03-03T12:42:51;9.32;;;5.15;;
1545;SDS011;766;51.502;9.752;2023-03-03T12:45:33;9.32;;;5.22;;
1545;SDS011;766;51.502;9.752;2023-03-03T12:48:08;8.68;;;5.10;;
1545;SDS011;766;51.502;9.752;2023-03-03T12:50:46;10.02;;;5.63;;
1545;SDS011;766;51.502;9.752;2023-03-03T12:53:29;10.98;;;5.13;;
1545;SDS011;766;51.502;9.752;2023-03-03T12:56:11;9.70;;;4.82;;
1545;SDS011;766;51.502;9.752;2023-03-03T12:58:45;11.63;;;5.30;;
1545;SDS011;766;51.502;9.752;2023-03-03T13:01:31;8.75;;;4.68;;
1545;SDS011;766;51.502;9.752;2023-03-03T13:04:10;8.73;;;4.82;;
1545;SDS011;766;51.502;9.752;2023-03-03T13:06:51;9.73;;;5.20;;
1545;SDS011;766;51.502;9.752;2023-03-03T13:09:28;10.65;;;6.03;;
1545;SDS011;766;51.502;9.752;2023-03-03T13:12:10;9.98;;;5.25;;
1545;SDS011;766;51.502;9.752;2023-03-03T13:14:53;8.45;;;5.13;;
1545;SDS011;766;51.502;9.752;2023-03-03T13:17:29;9.68;;;5.43;;
1545;SDS011;766;51.502;9.752;2023-03-03T13:20:02;12.15;;;5.82;;
1545;SDS011;766;51.502;9.752;2023-03-03T13:22:38;13.43;;;5.43;;
1545;SDS011;766;51.502;9.752;2023-03-03T13:25:23;10.68;;;5.93;;
1545;SDS011;766;51.502;9.752;2023-03-03T13:28:02;13.85;;;6.57;;
1545;SDS011;766;51.502;9.752;2023-03-03T13:30:39;10.77;;;5.78;;
1545;SDS011;766;51.502;9.752;2023-03-03T13:33:15;11.57;;;6.68;;
1545;SDS011;766;51.502;9.752;2023-03-03T13:35:50;15.13;;;7.32;;
1545;SDS011;766;51.502;9.752;2023-03-03T13:38:25;13.55;;;6.95;;
1545;SDS011;766;51.502;9.752;2023-03-03T13:41:08;11.63;;;6.13;;
1545;SDS011;766;51.502;9.752;2023-03-03T13:43:54;23.70;;;10.75;;
1545;SDS011;766;51.502;9.752;2023-03-03T13:46:33;12.05;;;6.25;;
1545;SDS011;766;51.502;9.752;2023-03-03T13:49:14;13.57;;;5.93;;
1545;SDS011;766;51.502;9.752;2023-03-03T13:51:57;11.65;;;6.25;;
1545;SDS011;766;51.502;9.752;2023-03-03T13:57:38;9.95;;;6.07;;
1545;SDS011;766;51.502;9.752;2023-03-03T14:00:20;17.45;;;6.00;;
1545;SDS011;766;51.502;9.752;2023-03-03T14:03:05;9.20;;;5.15;;
1545;SDS011;766;51.502;9.752;2023-03-03T14:05:55;10.98;;;5.18;;
1545;SDS011;766;51.502;9.752;2023-03-03T14:08:33;10.35;;;5.65;;
1545;SDS011;766;51.502;9.752;2023-03-03T14:11:20;12.88;;;5.72;;
1545;SDS011;766;51.502;9.752;2023-03-03T14:13:59;9.85;;;5.72;;
1545;SDS011;766;51.502;9.752;2023-03-03T14:16:40;10.43;;;5.43;;
1545;SDS011;766;51.502;9.752;2023-03-03T14:19:16;11.35;;;5.43;;
1545;SDS011;766;51.502;9.752;2023-03-03T14:21:48;9.07;;;5.60;;
1545;SDS011;766;51.502;9.752;2023-03-03T14:24:23;11.07;;;5.45;;
1545;SDS011;766;51.502;9.752;2023-03-03T14:26:52;10.65;;;5.65;;
1545;SDS011;766;51.502;9.752;2023-03-03T14:29:28;12.55;;;5.70;;
1545;SDS011;766;51.502;9.752;2023-03-03T14:31:59;12.88;;;5.93;;
1545;SDS011;766;51.502;9.752;2023-03-03T14:34:35;10.45;;;6.10;;
1545;SDS011;766;51.502;9.752;2023-03-03T14:37:20;10.35;;;5.57;;
1545;SDS011;766;51.502;9.752;2023-03-03T14:39:58;12.75;;;7.13;;
1545;SDS011;766;51.502;9.752;2023-03-03T14:42:34;9.80;;;5.82;;
1545;SDS011;766;51.502;9.752;2023-03-03T14:45:19;11.07;;;5.63;;
1545;SDS011;766;51.502;9.752;2023-03-03T14:47:56;9.60;;;5.28;;
1545;SDS011;766;51.502;9.752;2023-03-03T14:50:31;12.40;;;5.95;;
1545;SDS011;766;51.502;9.752;2023-03-03T14:53:10;10.57;;;5.60;;
1545;SDS011;766;51.502;9.752;2023-03-03T14:55:43;10.02;;;5.63;;
1545;SDS011;766;51.502;9.752;2023-03-03T14:58:29;12.10;;;6.10;;
1545;SDS011;766;51.502;9.752;2023-03-03T15:01:08;9.02;;;5.50;;
1545;SDS011;766;51.502;9.752;2023-03-03T15:03:46;9.80;;;5.32;;
1545;SDS011;766;51.502;9.752;2023-03-03T15:06:36;7.88;;;5.05;;
1545;SDS011;766;51.502;9.752;2023-03-03T15:09:28;8.57;;;5.00;;
1545;SDS011;766;51.502;9.752;2023-03-03T15:12:16;8.23;;;5.22;;
1545;SDS011;766;51.502;9.752;2023-03-03T15:14:47;10.10;;;5.43;;
1545;SDS011;766;51.502;9.752;2023-03-03T15:17:23;9.20;;;4.70;;
1545;SDS011;766;51.502;9.752;2023-03-03T15:26:04;11.35;;;5.88;;
1545;SDS011;766;51.502;9.752;2023-03-03T15:28:43;9.10;;;5.28;;
1545;SDS011;766;51.502;9.752;2023-03-03T15:31:24;8.90;;;5.25;;
1545;SDS011;766;51.502;9.752;2023-03-03T15:34:03;9.82;;;5.65;;
1545;SDS011;766;51.502;9.752;2023-03-03T15:36:42;14.57;;;5.65;;
1545;SDS011;766;51.502;9.752;2023-03-03T15:39:18;7.72;;;5.18;;
1545;SDS011;766;51.502;9.752;2023-03-03T15:41:57;12.23;;;5.55;;
1545;SDS011;766;51.502;9.752;2023-03-03T15:44:37;8.70;;;5.88;;
1545;SDS011;766;51.502;9.752;2023-03-03T15:47:19;9.57;;;5.63;;
1545;SDS011;766;51.502;9.752;2023-03-03T15:53:15;9.27;;;5.53;;
1545;SDS011;766;51.502;9.752;2023-03-03T15:55:58;9.30;;;5.65;;
1545;SDS011;766;51.502;9.752;2023-03-03T16:01:41;9.75;;;5.53;;
1545;SDS011;766;51.502;9.752;2023-03-03T16:04:18;9.90;;;5.38;;
1545;SDS011;766;51.502;9.752;2023-03-03T16:06:52;8.10;;;5.28;;
1545;SDS011;766;51.502;9.752;2023-03-03T16:09:32;8.05;;;4.97;;
1545;SDS011;766;51.502;9.752;2023-03-03T16:12:19;9.45;;;5.93;;
1545;SDS011;766;51.502;9.752;2023-03-03T16:14:57;9.13;;;5.50;;
1545;SDS011;766;51.502;9.752;2023-03-03T16:17:43;8.65;;;5.05;;
1545;SDS011;766;51.502;9.752;2023-03-03T16:20:20;8.93;;;5.40;;
1545;SDS011;766;51.502;9.752;2023-03-03T16:22:58;10.18;;;6.10;;
1545;SDS011;766;51.502;9.752;2023-03-03T16:25:50;10.98;;;6.10;;
1545;SDS011;766;51.502;9.752;2023-03-03T16:28:26;11.00;;;6.55;;
1545;SDS011;766;51.502;9.752;2023-03-03T16:31:05;10.82;;;6.82;;
1545;SDS011;766;51.502;9.752;2023-03-03T16:33:39;12.18;;;7.30;;
1545;SDS011;766;51.502;9.752;2023-03-03T16:36:20;10.65;;;6.03;;
1545;SDS011;766;51.502;9.752;2023-03-03T16:38:59;13.80;;;6.57;;
1545;SDS011;766;51.502;9.752;2023-03-03T16:41:42;10.23;;;6.50;;
1545;SDS011;766;51.502;9.752;2023-03-03T16:44:24;11.50;;;7.10;;
1545;SDS011;766;51.502;9.752;2023-03-03T16:47:09;11.35;;;6.20;;
1545;SDS011;766;51.502;9.752;2023-03-03T16:49:49;10.95;;;7.30;;